Hang Nadim, Indonesia

7:29 PM WIB on February 14, 2016 (GMT +0700)
Batam Hang Nadim | | Change Station
CLOSE
Current Station
Airport
Location: Batam Hang Nadim,
Elevation: 125 ft
Nearby Weather Stations

Elev 125 ft 1.12 °N, 104.12 °E | Updated 29 minutes ago

Partly Cloudy
Partly Cloudy
84 °F
Feels Like 94 °F
N
9
Wind Variable Wind from NE

Today
High -- | Low -- °F
--% Chance of Precip.
Yesterday
High -- | Low -- °F
Precip. -- in
Pressure 29.89 in
Visibility 6.2 miles
Clouds Few 1400 ft
Heat Index 94 °F
Dew Point 77 °F
Humidity 79%
Rainfall 0.00 in
Snow Depth Not available.
6:15 AM 6:20 PM
Waxing Crescent, 41% visible
METAR WIDD 141200Z 04008KT 9999 FEW014 29/25 Q1012 NOSIG
Pressure 29.89 in
Visibility 6.2 miles
Clouds Few 1400 ft
Heat Index 94 °F
Dew Point 77 °F
Humidity 79%
Rainfall 0.00 in
Snow Depth Not available.
6:15 AM 6:20 PM
Waxing Crescent, 41% visible
METAR WIDD 141200Z 04008KT 9999 FEW014 29/25 Q1012 NOSIG

10-Day Weather Forecast

No radar image for this location.
×

Almanac

Astronomy

Feb. 14, 2016 Rise Set
Actual Time
Civil Twilight
Nautical Twilight
Astronomical Twilight
Moon
Length of Visible Light
Length of Day
Tomorrow will be .
, % of the Moon is Illuminated

Today's Extremes

Country Highs Country Lows

Community

WunderPhotos

Upload Photos

1,892,771 photos uploaded!

WunderBlog® & News

Nearby

Air Quality

  Air Quality AQ Index Pollutant
Not available.

Snow Depth

Station Depth Elevation

Earthquake Activity

City Distance Mag. Time & Date
Minimum magnitude displayed is 2.5.

Coastal Water Temperatures

Place Temperature

Stations

Nearby Weather Stations

Station Location Temp. Windchill Dew Point Humidity Wind Precip. Elev Updated Type